KASD

Details ICAO KASD
Name Slidell
Region United States
Timezone America/Chicago (UTC-5.0)
Plans Departing 23
Arriving 7
Stats Elevation 27 ft / 8 m (AMSL)
Location 30.345019° -89.820785°
Runways 1
Magnetic Variation 1.099° W
Sunrise 2018-05-25 11:01:32 UTC / 2018-05-25 06:01:32 Local
Sunset 2018-05-26 00:53:49 UTC / 2018-05-25 19:53:49 Local
Advertisement - Login to hide

Runways

ID Width Length Bearing (true) Bearing (mag) Surface Threshold Offset Overrun Length
18 100 ft / 30 m 5,005 ft / 1,525 m 179.49° 180.59° Asphalt 945 ft / 288 m 0 ft / 0 m
36 100 ft / 30 m 5,005 ft / 1,525 m 359.49° 0.59° Asphalt 0 ft / 0 m 0 ft / 0 m

Map

Weather


0- 5 10 15 20 25 30 35+ Temperature / ° C

Clouds and Precipitation
Forecast for 2018-05-25 12:00 UTC. Updated 2 hours ago

Ground ~20,000 ft ~40,000 ft Winds

METAR

KASD 251253Z AUTO 06003KT 10SM CLR 24/21 A3001 RMK AO2 SLP162 T02390206

TAF

KASD 251120Z 2512/2612 00000KT P6SM BKN023 BKN030 TEMPO 2512/2516 4SM -TSRA BKN020CB FM251600 VRB03KT P6SM VCTS BKN025CB BKN250 TEMPO 2517/2521 2SM TSRA OVC015CB FM252100 VRB03KT P6SM SHRA VCTS BKN035CB BKN110 FM260500 00000KT P6SM BKN030 OVC120

Frequencies

Recorded 132.47 MHz ASOS
Approach 133.15 MHz NEW ORLEANS APP/DEP
Unicom 122.80 MHz CTAF/UNICOM
Warning: Do not use this data for real-world aviation or navigation. No guarantee of current accuracy is given.